sensor_id;sensor_type;location;lat;lon;timestamp;temperature;humidity
3356;DHT22;1691;52.486;13.374;2023-04-24T00:01:59;12.10;92.10
3356;DHT22;1691;52.486;13.374;2023-04-24T00:04:27;12.10;92.20
3356;DHT22;1691;52.486;13.374;2023-04-24T00:06:55;12.10;92.30
3356;DHT22;1691;52.486;13.374;2023-04-24T00:09:23;12.10;92.40
3356;DHT22;1691;52.486;13.374;2023-04-24T00:11:51;12.10;92.50
3356;DHT22;1691;52.486;13.374;2023-04-24T00:14:18;12.10;92.60
3356;DHT22;1691;52.486;13.374;2023-04-24T00:16:45;12.10;92.70
3356;DHT22;1691;52.486;13.374;2023-04-24T00:19:12;12.10;92.80
3356;DHT22;1691;52.486;13.374;2023-04-24T00:21:40;12.10;92.90
3356;DHT22;1691;52.486;13.374;2023-04-24T00:24:07;12.20;92.90
3356;DHT22;1691;52.486;13.374;2023-04-24T00:26:38;12.10;92.90
3356;DHT22;1691;52.486;13.374;2023-04-24T00:29:05;12.10;93.20
3356;DHT22;1691;52.486;13.374;2023-04-24T00:31:32;12.10;93.20
3356;DHT22;1691;52.486;13.374;2023-04-24T00:34:02;12.10;93.40
3356;DHT22;1691;52.486;13.374;2023-04-24T00:36:29;12.10;93.50
3356;DHT22;1691;52.486;13.374;2023-04-24T00:38:58;12.10;93.50
3356;DHT22;1691;52.486;13.374;2023-04-24T00:41:25;12.00;93.60
3356;DHT22;1691;52.486;13.374;2023-04-24T00:43:52;12.00;93.70
3356;DHT22;1691;52.486;13.374;2023-04-24T00:46:20;12.00;93.80
3356;DHT22;1691;52.486;13.374;2023-04-24T00:48:47;12.00;94.00
3356;DHT22;1691;52.486;13.374;2023-04-24T00:51:14;12.00;94.00
3356;DHT22;1691;52.486;13.374;2023-04-24T00:53:42;12.00;94.10
3356;DHT22;1691;52.486;13.374;2023-04-24T00:56:09;11.90;94.20
3356;DHT22;1691;52.486;13.374;2023-04-24T00:58:36;11.90;94.30
3356;DHT22;1691;52.486;13.374;2023-04-24T01:01:03;11.90;94.40
3356;DHT22;1691;52.486;13.374;2023-04-24T01:03:34;11.90;94.50
3356;DHT22;1691;52.486;13.374;2023-04-24T01:06:05;11.90;94.60
3356;DHT22;1691;52.486;13.374;2023-04-24T01:08:33;11.90;94.60
3356;DHT22;1691;52.486;13.374;2023-04-24T01:11:03;11.90;94.80
3356;DHT22;1691;52.486;13.374;2023-04-24T01:13:32;11.90;94.70
3356;DHT22;1691;52.486;13.374;2023-04-24T01:16:00;11.90;94.90
3356;DHT22;1691;52.486;13.374;2023-04-24T01:18:27;11.90;95.00
3356;DHT22;1691;52.486;13.374;2023-04-24T01:20:58;11.90;94.90
3356;DHT22;1691;52.486;13.374;2023-04-24T01:23:26;11.90;95.10
3356;DHT22;1691;52.486;13.374;2023-04-24T01:25:54;11.90;95.10
3356;DHT22;1691;52.486;13.374;2023-04-24T01:28:21;11.90;95.20
3356;DHT22;1691;52.486;13.374;2023-04-24T01:30:49;11.90;95.20
3356;DHT22;1691;52.486;13.374;2023-04-24T01:33:16;11.80;95.30
3356;DHT22;1691;52.486;13.374;2023-04-24T01:35:43;11.90;95.40
3356;DHT22;1691;52.486;13.374;2023-04-24T01:38:11;11.90;95.50
3356;DHT22;1691;52.486;13.374;2023-04-24T01:40:38;11.80;95.50
3356;DHT22;1691;52.486;13.374;2023-04-24T01:43:05;11.80;95.50
3356;DHT22;1691;52.486;13.374;2023-04-24T01:45:32;11.80;95.60
3356;DHT22;1691;52.486;13.374;2023-04-24T01:48:00;11.80;95.60
3356;DHT22;1691;52.486;13.374;2023-04-24T01:50:27;11.80;95.70
3356;DHT22;1691;52.486;13.374;2023-04-24T01:52:54;11.80;95.80
3356;DHT22;1691;52.486;13.374;2023-04-24T01:55:21;11.90;95.70
3356;DHT22;1691;52.486;13.374;2023-04-24T01:57:49;11.80;95.90
3356;DHT22;1691;52.486;13.374;2023-04-24T02:00:16;11.90;96.00
3356;DHT22;1691;52.486;13.374;2023-04-24T02:02:44;11.90;96.00
3356;DHT22;1691;52.486;13.374;2023-04-24T02:05:14;11.90;96.10
3356;DHT22;1691;52.486;13.374;2023-04-24T02:07:41;11.90;96.10
3356;DHT22;1691;52.486;13.374;2023-04-24T02:10:09;11.90;96.30
3356;DHT22;1691;52.486;13.374;2023-04-24T02:12:36;11.90;96.30
3356;DHT22;1691;52.486;13.374;2023-04-24T02:15:03;11.90;96.30
3356;DHT22;1691;52.486;13.374;2023-04-24T02:17:31;11.90;96.40
3356;DHT22;1691;52.486;13.374;2023-04-24T02:19:58;12.00;96.40
3356;DHT22;1691;52.486;13.374;2023-04-24T02:22:25;12.00;96.50
3356;DHT22;1691;52.486;13.374;2023-04-24T02:24:51;12.00;96.50
3356;DHT22;1691;52.486;13.374;2023-04-24T02:27:18;12.00;96.60
3356;DHT22;1691;52.486;13.374;2023-04-24T02:29:45;12.00;96.60
3356;DHT22;1691;52.486;13.374;2023-04-24T02:32:12;12.00;96.60
3356;DHT22;1691;52.486;13.374;2023-04-24T02:34:42;12.00;96.70
3356;DHT22;1691;52.486;13.374;2023-04-24T02:37:09;12.00;96.70
3356;DHT22;1691;52.486;13.374;2023-04-24T02:39:36;12.00;96.80
3356;DHT22;1691;52.486;13.374;2023-04-24T02:42:03;12.00;96.80
3356;DHT22;1691;52.486;13.374;2023-04-24T02:44:30;12.00;96.90
3356;DHT22;1691;52.486;13.374;2023-04-24T02:46:57;12.00;97.00
3356;DHT22;1691;52.486;13.374;2023-04-24T02:49:24;12.00;97.00
3356;DHT22;1691;52.486;13.374;2023-04-24T02:51:51;12.00;97.00
3356;DHT22;1691;52.486;13.374;2023-04-24T02:54:18;12.00;97.00
3356;DHT22;1691;52.486;13.374;2023-04-24T02:56:45;12.00;97.10
3356;DHT22;1691;52.486;13.374;2023-04-24T02:59:11;12.00;97.10
3356;DHT22;1691;52.486;13.374;2023-04-24T03:01:39;12.00;97.20
3356;DHT22;1691;52.486;13.374;2023-04-24T03:04:06;12.10;97.20
3356;DHT22;1691;52.486;13.374;2023-04-24T03:06:33;12.10;97.20
3356;DHT22;1691;52.486;13.374;2023-04-24T03:09:02;12.10;97.20
3356;DHT22;1691;52.486;13.374;2023-04-24T03:11:30;12.10;97.10
3356;DHT22;1691;52.486;13.374;2023-04-24T03:13:57;12.10;97.10
3356;DHT22;1691;52.486;13.374;2023-04-24T03:16:24;12.20;97.10
3356;DHT22;1691;52.486;13.374;2023-04-24T03:18:51;12.20;97.10
3356;DHT22;1691;52.486;13.374;2023-04-24T03:21:18;12.30;97.10
3356;DHT22;1691;52.486;13.374;2023-04-24T03:23:45;12.30;97.10
3356;DHT22;1691;52.486;13.374;2023-04-24T03:26:12;12.30;97.10
3356;DHT22;1691;52.486;13.374;2023-04-24T03:28:39;12.30;97.00
3356;DHT22;1691;52.486;13.374;2023-04-24T03:31:06;12.40;97.00
3356;DHT22;1691;52.486;13.374;2023-04-24T03:33:33;12.40;97.00
3356;DHT22;1691;52.486;13.374;2023-04-24T03:36:00;12.40;97.00
3356;DHT22;1691;52.486;13.374;2023-04-24T03:38:27;12.40;97.00
3356;DHT22;1691;52.486;13.374;2023-04-24T03:40:54;12.50;97.00
3356;DHT22;1691;52.486;13.374;2023-04-24T03:43:21;12.50;97.00
3356;DHT22;1691;52.486;13.374;2023-04-24T03:45:48;12.50;96.90
3356;DHT22;1691;52.486;13.374;2023-04-24T03:48:15;12.50;96.90
3356;DHT22;1691;52.486;13.374;2023-04-24T03:50:42;12.60;96.80
3356;DHT22;1691;52.486;13.374;2023-04-24T03:53:09;12.60;96.70
3356;DHT22;1691;52.486;13.374;2023-04-24T03:55:36;12.60;96.70
3356;DHT22;1691;52.486;13.374;2023-04-24T03:58:02;12.60;96.70
3356;DHT22;1691;52.486;13.374;2023-04-24T04:00:29;12.70;96.60
3356;DHT22;1691;52.486;13.374;2023-04-24T04:02:58;12.70;96.60
3356;DHT22;1691;52.486;13.374;2023-04-24T04:05:25;12.70;96.60
3356;DHT22;1691;52.486;13.374;2023-04-24T04:07:53;12.70;96.50
3356;DHT22;1691;52.486;13.374;2023-04-24T04:10:20;12.70;96.50
3356;DHT22;1691;52.486;13.374;2023-04-24T04:12:47;12.70;96.50
3356;DHT22;1691;52.486;13.374;2023-04-24T04:15:14;12.70;96.50
3356;DHT22;1691;52.486;13.374;2023-04-24T04:17:41;12.70;96.50
3356;DHT22;1691;52.486;13.374;2023-04-24T04:20:08;12.70;96.50
3356;DHT22;1691;52.486;13.374;2023-04-24T04:22:38;12.80;96.50
3356;DHT22;1691;52.486;13.374;2023-04-24T04:25:07;12.80;96.50
3356;DHT22;1691;52.486;13.374;2023-04-24T04:27:34;12.80;96.40
3356;DHT22;1691;52.486;13.374;2023-04-24T04:30:02;12.80;96.40
3356;DHT22;1691;52.486;13.374;2023-04-24T04:32:34;12.80;96.30
3356;DHT22;1691;52.486;13.374;2023-04-24T04:35:01;12.90;96.30
3356;DHT22;1691;52.486;13.374;2023-04-24T04:37:32;12.90;96.30
3356;DHT22;1691;52.486;13.374;2023-04-24T04:40:00;12.90;96.30
3356;DHT22;1691;52.486;13.374;2023-04-24T04:42:27;12.90;96.20
3356;DHT22;1691;52.486;13.374;2023-04-24T04:44:55;12.90;96.20
3356;DHT22;1691;52.486;13.374;2023-04-24T04:47:24;12.90;96.20
3356;DHT22;1691;52.486;13.374;2023-04-24T04:49:51;13.00;96.10
3356;DHT22;1691;52.486;13.374;2023-04-24T04:52:18;13.00;96.10
3356;DHT22;1691;52.486;13.374;2023-04-24T04:54:45;13.00;96.10
3356;DHT22;1691;52.486;13.374;2023-04-24T04:57:13;13.00;95.90
3356;DHT22;1691;52.486;13.374;2023-04-24T04:59:39;13.00;95.90
3356;DHT22;1691;52.486;13.374;2023-04-24T05:02:08;13.10;95.80
3356;DHT22;1691;52.486;13.374;2023-04-24T05:04:35;13.10;95.80
3356;DHT22;1691;52.486;13.374;2023-04-24T05:07:03;13.10;95.80
3356;DHT22;1691;52.486;13.374;2023-04-24T05:09:30;13.20;95.70
3356;DHT22;1691;52.486;13.374;2023-04-24T05:11:57;13.30;95.70
3356;DHT22;1691;52.486;13.374;2023-04-24T05:14:24;13.30;95.60
3356;DHT22;1691;52.486;13.374;2023-04-24T05:16:50;13.40;95.50
3356;DHT22;1691;52.486;13.374;2023-04-24T05:19:17;13.50;95.20
3356;DHT22;1691;52.486;13.374;2023-04-24T05:21:44;13.60;95.10
3356;DHT22;1691;52.486;13.374;2023-04-24T05:24:11;13.70;94.90
3356;DHT22;1691;52.486;13.374;2023-04-24T05:26:38;13.90;94.80
3356;DHT22;1691;52.486;13.374;2023-04-24T05:29:05;14.10;94.70
3356;DHT22;1691;52.486;13.374;2023-04-24T05:31:32;14.40;94.40
3356;DHT22;1691;52.486;13.374;2023-04-24T05:33:59;14.80;94.20
3356;DHT22;1691;52.486;13.374;2023-04-24T05:36:26;15.50;93.70
3356;DHT22;1691;52.486;13.374;2023-04-24T05:38:54;16.10;92.40
3356;DHT22;1691;52.486;13.374;2023-04-24T05:41:21;16.50;91.30
3356;DHT22;1691;52.486;13.374;2023-04-24T05:43:49;17.00;90.60
3356;DHT22;1691;52.486;13.374;2023-04-24T05:46:16;17.80;89.20
3356;DHT22;1691;52.486;13.374;2023-04-24T05:48:43;18.30;86.20
3356;DHT22;1691;52.486;13.374;2023-04-24T05:51:10;18.70;84.10
3356;DHT22;1691;52.486;13.374;2023-04-24T05:53:37;18.90;82.40
3356;DHT22;1691;52.486;13.374;2023-04-24T05:56:04;19.10;81.00
3356;DHT22;1691;52.486;13.374;2023-04-24T05:58:31;19.20;79.80
3356;DHT22;1691;52.486;13.374;2023-04-24T06:01:06;19.40;78.50
3356;DHT22;1691;52.486;13.374;2023-04-24T06:03:33;19.80;77.60
3356;DHT22;1691;52.486;13.374;2023-04-24T06:06:00;20.30;75.70
3356;DHT22;1691;52.486;13.374;2023-04-24T06:08:27;20.80;73.50
3356;DHT22;1691;52.486;13.374;2023-04-24T06:10:54;21.20;71.60
3356;DHT22;1691;52.486;13.374;2023-04-24T06:13:21;21.60;69.80
3356;DHT22;1691;52.486;13.374;2023-04-24T06:15:48;22.00;68.10
3356;DHT22;1691;52.486;13.374;2023-04-24T06:18:15;22.40;66.60
3356;DHT22;1691;52.486;13.374;2023-04-24T06:20:42;23.00;64.70
3356;DHT22;1691;52.486;13.374;2023-04-24T06:23:09;23.30;62.50
3356;DHT22;1691;52.486;13.374;2023-04-24T06:25:36;23.20;61.60
3356;DHT22;1691;52.486;13.374;2023-04-24T06:28:03;22.90;61.40
3356;DHT22;1691;52.486;13.374;2023-04-24T06:30:30;22.80;61.40
3356;DHT22;1691;52.486;13.374;2023-04-24T06:32:57;23.10;60.60
3356;DHT22;1691;52.486;13.374;2023-04-24T06:35:38;23.50;59.30
3356;DHT22;1691;52.486;13.374;2023-04-24T06:38:05;24.20;57.80
3356;DHT22;1691;52.486;13.374;2023-04-24T06:40:32;25.10;56.20
3356;DHT22;1691;52.486;13.374;2023-04-24T06:43:00;26.10;53.80
3356;DHT22;1691;52.486;13.374;2023-04-24T06:45:29;27.10;51.60
3356;DHT22;1691;52.486;13.374;2023-04-24T06:47:56;28.10;49.20
3356;DHT22;1691;52.486;13.374;2023-04-24T06:50:24;29.00;47.20
3356;DHT22;1691;52.486;13.374;2023-04-24T06:52:51;29.80;44.70
3356;DHT22;1691;52.486;13.374;2023-04-24T06:55:18;30.00;43.30
3356;DHT22;1691;52.486;13.374;2023-04-24T06:57:45;30.10;42.90
3356;DHT22;1691;52.486;13.374;2023-04-24T07:00:13;30.40;41.50
3356;DHT22;1691;52.486;13.374;2023-04-24T07:02:40;30.70;40.70
3356;DHT22;1691;52.486;13.374;2023-04-24T07:05:07;30.80;39.80
3356;DHT22;1691;52.486;13.374;2023-04-24T07:07:35;30.90;39.30
3356;DHT22;1691;52.486;13.374;2023-04-24T07:10:05;30.40;39.20
3356;DHT22;1691;52.486;13.374;2023-04-24T07:12:32;30.20;39.30
3356;DHT22;1691;52.486;13.374;2023-04-24T07:15:00;30.50;38.50
3356;DHT22;1691;52.486;13.374;2023-04-24T07:17:27;31.10;37.80
3356;DHT22;1691;52.486;13.374;2023-04-24T07:19:54;31.40;37.00
3356;DHT22;1691;52.486;13.374;2023-04-24T07:22:21;30.90;36.40
3356;DHT22;1691;52.486;13.374;2023-04-24T07:24:48;29.90;37.00
3356;DHT22;1691;52.486;13.374;2023-04-24T07:27:15;28.90;38.20
3356;DHT22;1691;52.486;13.374;2023-04-24T07:29:42;28.20;38.70
3356;DHT22;1691;52.486;13.374;2023-04-24T07:32:10;27.70;39.30
3356;DHT22;1691;52.486;13.374;2023-04-24T07:34:37;27.20;39.90
3356;DHT22;1691;52.486;13.374;2023-04-24T07:37:04;26.70;40.10
3356;DHT22;1691;52.486;13.374;2023-04-24T07:39:31;26.30;40.40
3356;DHT22;1691;52.486;13.374;2023-04-24T07:41:58;26.90;40.10
3356;DHT22;1691;52.486;13.374;2023-04-24T07:44:26;28.00;38.70
3356;DHT22;1691;52.486;13.374;2023-04-24T07:46:53;29.30;36.70
3356;DHT22;1691;52.486;13.374;2023-04-24T07:49:20;30.30;34.90
3356;DHT22;1691;52.486;13.374;2023-04-24T07:51:48;30.80;33.80
3356;DHT22;1691;52.486;13.374;2023-04-24T07:54:16;31.40;32.20
3356;DHT22;1691;52.486;13.374;2023-04-24T07:56:43;31.70;31.20
3356;DHT22;1691;52.486;13.374;2023-04-24T07:59:10;32.10;30.50
3356;DHT22;1691;52.486;13.374;2023-04-24T08:01:37;32.50;29.70
3356;DHT22;1691;52.486;13.374;2023-04-24T08:04:05;33.00;29.10
3356;DHT22;1691;52.486;13.374;2023-04-24T08:06:32;33.30;28.80
3356;DHT22;1691;52.486;13.374;2023-04-24T08:09:00;33.10;28.60
3356;DHT22;1691;52.486;13.374;2023-04-24T08:11:27;32.90;28.60
3356;DHT22;1691;52.486;13.374;2023-04-24T08:13:54;32.40;28.70
3356;DHT22;1691;52.486;13.374;2023-04-24T08:16:22;31.40;28.90
3356;DHT22;1691;52.486;13.374;2023-04-24T08:18:51;30.60;29.40
3356;DHT22;1691;52.486;13.374;2023-04-24T08:21:19;29.90;29.70
3356;DHT22;1691;52.486;13.374;2023-04-24T08:23:47;29.20;30.40
3356;DHT22;1691;52.486;13.374;2023-04-24T08:26:14;28.30;31.60
3356;DHT22;1691;52.486;13.374;2023-04-24T08:28:41;27.50;32.50
3356;DHT22;1691;52.486;13.374;2023-04-24T08:31:08;26.80;33.90
3356;DHT22;1691;52.486;13.374;2023-04-24T08:33:35;26.50;35.30
3356;DHT22;1691;52.486;13.374;2023-04-24T08:36:04;26.40;36.20
3356;DHT22;1691;52.486;13.374;2023-04-24T08:38:31;26.70;35.90
3356;DHT22;1691;52.486;13.374;2023-04-24T08:41:01;26.80;35.20
3356;DHT22;1691;52.486;13.374;2023-04-24T08:43:28;26.50;35.00
3356;DHT22;1691;52.486;13.374;2023-04-24T08:45:56;26.00;35.30
3356;DHT22;1691;52.486;13.374;2023-04-24T08:48:23;25.50;36.10
3356;DHT22;1691;52.486;13.374;2023-04-24T08:50:58;25.00;36.70
3356;DHT22;1691;52.486;13.374;2023-04-24T08:53:26;24.60;37.50
3356;DHT22;1691;52.486;13.374;2023-04-24T08:55:55;24.50;37.80
3356;DHT22;1691;52.486;13.374;2023-04-24T08:58:25;24.50;38.10
3356;DHT22;1691;52.486;13.374;2023-04-24T09:00:56;24.90;37.80
3356;DHT22;1691;52.486;13.374;2023-04-24T09:03:24;24.90;37.90
3356;DHT22;1691;52.486;13.374;2023-04-24T09:05:55;24.70;38.50
3356;DHT22;1691;52.486;13.374;2023-04-24T09:08:24;24.40;39.30
3356;DHT22;1691;52.486;13.374;2023-04-24T09:10:52;24.10;39.90
3356;DHT22;1691;52.486;13.374;2023-04-24T09:13:23;24.00;40.20
3356;DHT22;1691;52.486;13.374;2023-04-24T09:15:50;23.70;41.00
3356;DHT22;1691;52.486;13.374;2023-04-24T09:18:17;23.40;41.80
3356;DHT22;1691;52.486;13.374;2023-04-24T09:21:06;23.00;42.50
3356;DHT22;1691;52.486;13.374;2023-04-24T09:23:34;22.60;43.30
3356;DHT22;1691;52.486;13.374;2023-04-24T09:26:02;22.20;44.10
3356;DHT22;1691;52.486;13.374;2023-04-24T09:28:34;22.10;44.70
3356;DHT22;1691;52.486;13.374;2023-04-24T09:31:13;21.90;45.60
3356;DHT22;1691;52.486;13.374;2023-04-24T09:36:35;22.10;46.50
3356;DHT22;1691;52.486;13.374;2023-04-24T09:39:09;21.90;46.50
3356;DHT22;1691;52.486;13.374;2023-04-24T09:41:48;21.70;47.30
3356;DHT22;1691;52.486;13.374;2023-04-24T09:44:23;21.70;47.80
3356;DHT22;1691;52.486;13.374;2023-04-24T09:46:52;21.90;47.60
3356;DHT22;1691;52.486;13.374;2023-04-24T09:49:28;22.10;47.50
3356;DHT22;1691;52.486;13.374;2023-04-24T09:52:10;22.10;47.30
3356;DHT22;1691;52.486;13.374;2023-04-24T09:54:39;22.10;47.50
3356;DHT22;1691;52.486;13.374;2023-04-24T09:57:09;22.10;47.50
3356;DHT22;1691;52.486;13.374;2023-04-24T09:59:42;22.30;47.20
3356;DHT22;1691;52.486;13.374;2023-04-24T10:02:19;22.40;46.90
3356;DHT22;1691;52.486;13.374;2023-04-24T10:04:57;22.50;46.70
3356;DHT22;1691;52.486;13.374;2023-04-24T10:07:26;22.70;46.40
3356;DHT22;1691;52.486;13.374;2023-04-24T10:09:54;22.70;46.10
3356;DHT22;1691;52.486;13.374;2023-04-24T10:12:21;22.90;45.90
3356;DHT22;1691;52.486;13.374;2023-04-24T10:14:50;23.40;45.50
3356;DHT22;1691;52.486;13.374;2023-04-24T10:17:17;24.30;44.20
3356;DHT22;1691;52.486;13.374;2023-04-24T10:19:47;25.20;42.50
3356;DHT22;1691;52.486;13.374;2023-04-24T10:22:15;25.50;41.50
3356;DHT22;1691;52.486;13.374;2023-04-24T10:24:44;25.50;41.00
3356;DHT22;1691;52.486;13.374;2023-04-24T10:27:13;25.20;41.00
3356;DHT22;1691;52.486;13.374;2023-04-24T10:29:43;24.80;41.30
3356;DHT22;1691;52.486;13.374;2023-04-24T10:32:11;24.30;41.80
3356;DHT22;1691;52.486;13.374;2023-04-24T10:34:38;23.90;42.90
3356;DHT22;1691;52.486;13.374;2023-04-24T10:37:05;23.50;43.30
3356;DHT22;1691;52.486;13.374;2023-04-24T10:39:32;23.10;44.10
3356;DHT22;1691;52.486;13.374;2023-04-24T10:42:00;22.70;44.70
3356;DHT22;1691;52.486;13.374;2023-04-24T10:44:36;22.30;45.50
3356;DHT22;1691;52.486;13.374;2023-04-24T10:47:03;21.90;46.10
3356;DHT22;1691;52.486;13.374;2023-04-24T10:49:31;21.40;46.90
3356;DHT22;1691;52.486;13.374;2023-04-24T10:52:03;21.10;47.30
3356;DHT22;1691;52.486;13.374;2023-04-24T10:54:44;20.80;48.20
3356;DHT22;1691;52.486;13.374;2023-04-24T11:00:16;20.30;50.20
3356;DHT22;1691;52.486;13.374;2023-04-24T11:02:46;20.20;52.10
3356;DHT22;1691;52.486;13.374;2023-04-24T11:05:21;20.10;52.40
3356;DHT22;1691;52.486;13.374;2023-04-24T11:08:10;20.30;52.50
3356;DHT22;1691;52.486;13.374;2023-04-24T11:10:46;20.70;52.20
3356;DHT22;1691;52.486;13.374;2023-04-24T11:13:26;21.30;50.90
3356;DHT22;1691;52.486;13.374;2023-04-24T11:16:15;21.70;49.60
3356;DHT22;1691;52.486;13.374;2023-04-24T11:19:07;22.00;49.00
3356;DHT22;1691;52.486;13.374;2023-04-24T11:27:16;21.80;48.50
3356;DHT22;1691;52.486;13.374;2023-04-24T11:37:52;20.80;50.10
3356;DHT22;1691;52.486;13.374;2023-04-24T11:40:23;20.40;51.60
3356;DHT22;1691;52.486;13.374;2023-04-24T11:42:53;20.00;53.00
3356;DHT22;1691;52.486;13.374;2023-04-24T11:45:25;19.70;54.40
3356;DHT22;1691;52.486;13.374;2023-04-24T11:47:53;19.60;55.20
3356;DHT22;1691;52.486;13.374;2023-04-24T11:50:25;19.50;55.80
3356;DHT22;1691;52.486;13.374;2023-04-24T11:52:54;19.50;56.70
3356;DHT22;1691;52.486;13.374;2023-04-24T11:57:50;19.40;57.50
3356;DHT22;1691;52.486;13.374;2023-04-24T12:00:25;19.50;57.60
3356;DHT22;1691;52.486;13.374;2023-04-24T12:03:06;19.40;57.60
3356;DHT22;1691;52.486;13.374;2023-04-24T12:05:35;19.50;57.90
3356;DHT22;1691;52.486;13.374;2023-04-24T12:08:03;19.60;57.80
3356;DHT22;1691;52.486;13.374;2023-04-24T12:10:31;19.60;57.50
3356;DHT22;1691;52.486;13.374;2023-04-24T12:12:59;19.60;57.50
3356;DHT22;1691;52.486;13.374;2023-04-24T12:15:27;19.50;57.80
3356;DHT22;1691;52.486;13.374;2023-04-24T12:17:55;19.50;57.90
3356;DHT22;1691;52.486;13.374;2023-04-24T12:20:29;19.60;57.80
3356;DHT22;1691;52.486;13.374;2023-04-24T12:22:59;19.60;57.60
3356;DHT22;1691;52.486;13.374;2023-04-24T12:25:31;19.70;57.20
3356;DHT22;1691;52.486;13.374;2023-04-24T12:30:38;20.00;56.50
3356;DHT22;1691;52.486;13.374;2023-04-24T12:33:12;20.00;55.00
3356;DHT22;1691;52.486;13.374;2023-04-24T12:35:40;20.20;53.20
3356;DHT22;1691;52.486;13.374;2023-04-24T12:38:09;20.30;51.20
3356;DHT22;1691;52.486;13.374;2023-04-24T12:40:40;20.40;49.30
3356;DHT22;1691;52.486;13.374;2023-04-24T12:43:18;20.60;48.20
3356;DHT22;1691;52.486;13.374;2023-04-24T12:45:47;20.70;47.00
3356;DHT22;1691;52.486;13.374;2023-04-24T12:48:14;20.80;46.40
3356;DHT22;1691;52.486;13.374;2023-04-24T12:50:43;20.90;45.60
3356;DHT22;1691;52.486;13.374;2023-04-24T12:53:13;21.00;44.90
3356;DHT22;1691;52.486;13.374;2023-04-24T12:55:40;21.10;43.90
3356;DHT22;1691;52.486;13.374;2023-04-24T12:58:07;21.20;43.20
3356;DHT22;1691;52.486;13.374;2023-04-24T13:00:34;21.20;42.40
3356;DHT22;1691;52.486;13.374;2023-04-24T13:03:02;21.10;41.60
3356;DHT22;1691;52.486;13.374;2023-04-24T13:05:30;21.10;41.30
3356;DHT22;1691;52.486;13.374;2023-04-24T13:07:57;21.20;40.70
3356;DHT22;1691;52.486;13.374;2023-04-24T13:10:24;21.20;40.20
3356;DHT22;1691;52.486;13.374;2023-04-24T13:12:51;21.30;39.90
3356;DHT22;1691;52.486;13.374;2023-04-24T13:15:18;21.30;39.50
3356;DHT22;1691;52.486;13.374;2023-04-24T13:17:45;21.20;39.20
3356;DHT22;1691;52.486;13.374;2023-04-24T13:20:12;21.20;38.90
3356;DHT22;1691;52.486;13.374;2023-04-24T13:22:39;21.10;38.90
3356;DHT22;1691;52.486;13.374;2023-04-24T13:25:07;21.10;38.90
3356;DHT22;1691;52.486;13.374;2023-04-24T13:27:34;21.00;38.90
3356;DHT22;1691;52.486;13.374;2023-04-24T13:30:01;20.80;38.90
3356;DHT22;1691;52.486;13.374;2023-04-24T13:32:28;20.60;39.00
3356;DHT22;1691;52.486;13.374;2023-04-24T13:34:56;20.30;39.00
3356;DHT22;1691;52.486;13.374;2023-04-24T13:37:23;20.20;38.90
3356;DHT22;1691;52.486;13.374;2023-04-24T13:39:50;20.00;38.90
3356;DHT22;1691;52.486;13.374;2023-04-24T13:42:18;19.90;38.90
3356;DHT22;1691;52.486;13.374;2023-04-24T13:44:46;19.80;38.70
3356;DHT22;1691;52.486;13.374;2023-04-24T13:47:13;19.80;38.70
3356;DHT22;1691;52.486;13.374;2023-04-24T13:49:40;19.80;38.90
3356;DHT22;1691;52.486;13.374;2023-04-24T13:52:07;19.90;38.90
3356;DHT22;1691;52.486;13.374;2023-04-24T13:54:34;20.00;38.70
3356;DHT22;1691;52.486;13.374;2023-04-24T13:57:01;20.00;38.50
3356;DHT22;1691;52.486;13.374;2023-04-24T13:59:29;20.00;38.20
3356;DHT22;1691;52.486;13.374;2023-04-24T14:01:56;19.90;38.20
3356;DHT22;1691;52.486;13.374;2023-04-24T14:04:23;19.80;38.40
3356;DHT22;1691;52.486;13.374;2023-04-24T14:06:51;19.80;38.70
3356;DHT22;1691;52.486;13.374;2023-04-24T14:09:18;19.70;38.90
3356;DHT22;1691;52.486;13.374;2023-04-24T14:11:45;19.60;39.00
3356;DHT22;1691;52.486;13.374;2023-04-24T14:14:12;19.60;39.20
3356;DHT22;1691;52.486;13.374;2023-04-24T14:16:39;19.60;39.20
3356;DHT22;1691;52.486;13.374;2023-04-24T14:19:06;19.60;39.00
3356;DHT22;1691;52.486;13.374;2023-04-24T14:21:33;19.60;38.90
3356;DHT22;1691;52.486;13.374;2023-04-24T14:24:00;19.60;38.90
3356;DHT22;1691;52.486;13.374;2023-04-24T14:26:27;19.60;38.70
3356;DHT22;1691;52.486;13.374;2023-04-24T14:28:54;19.70;38.50
3356;DHT22;1691;52.486;13.374;2023-04-24T14:31:36;19.70;38.40
3356;DHT22;1691;52.486;13.374;2023-04-24T14:34:03;19.70;38.20
3356;DHT22;1691;52.486;13.374;2023-04-24T14:36:31;19.70;38.10
3356;DHT22;1691;52.486;13.374;2023-04-24T14:38:58;19.70;37.90
3356;DHT22;1691;52.486;13.374;2023-04-24T14:41:25;19.50;37.80
3356;DHT22;1691;52.486;13.374;2023-04-24T14:43:52;19.40;37.90
3356;DHT22;1691;52.486;13.374;2023-04-24T14:46:19;19.40;38.20
3356;DHT22;1691;52.486;13.374;2023-04-24T14:48:47;19.40;38.40
3356;DHT22;1691;52.486;13.374;2023-04-24T14:51:14;19.30;38.50
3356;DHT22;1691;52.486;13.374;2023-04-24T14:53:41;19.30;38.50
3356;DHT22;1691;52.486;13.374;2023-04-24T14:56:08;19.30;38.70
3356;DHT22;1691;52.486;13.374;2023-04-24T14:58:35;19.30;39.20
3356;DHT22;1691;52.486;13.374;2023-04-24T15:01:02;19.30;39.20
3356;DHT22;1691;52.486;13.374;2023-04-24T15:03:29;19.30;39.50
3356;DHT22;1691;52.486;13.374;2023-04-24T15:05:56;19.30;39.50
3356;DHT22;1691;52.486;13.374;2023-04-24T15:08:24;19.20;39.60
3356;DHT22;1691;52.486;13.374;2023-04-24T15:10:51;19.20;39.80
3356;DHT22;1691;52.486;13.374;2023-04-24T15:13:18;19.20;40.10
3356;DHT22;1691;52.486;13.374;2023-04-24T15:15:48;19.20;40.20
3356;DHT22;1691;52.486;13.374;2023-04-24T15:18:15;19.30;40.40
3356;DHT22;1691;52.486;13.374;2023-04-24T15:20:42;19.30;40.40
3356;DHT22;1691;52.486;13.374;2023-04-24T15:23:09;19.30;40.70
3356;DHT22;1691;52.486;13.374;2023-04-24T15:25:37;19.30;40.70
3356;DHT22;1691;52.486;13.374;2023-04-24T15:28:04;19.30;40.50
3356;DHT22;1691;52.486;13.374;2023-04-24T15:30:32;19.30;40.50
3356;DHT22;1691;52.486;13.374;2023-04-24T15:33:00;19.20;40.20
3356;DHT22;1691;52.486;13.374;2023-04-24T15:35:28;19.00;40.10
3356;DHT22;1691;52.486;13.374;2023-04-24T15:37:55;18.90;40.50
3356;DHT22;1691;52.486;13.374;2023-04-24T15:40:22;18.60;40.90
3356;DHT22;1691;52.486;13.374;2023-04-24T15:42:49;18.40;41.30
3356;DHT22;1691;52.486;13.374;2023-04-24T15:45:16;18.20;41.50
3356;DHT22;1691;52.486;13.374;2023-04-24T15:47:44;18.10;41.80
3356;DHT22;1691;52.486;13.374;2023-04-24T15:50:15;18.00;41.90
3356;DHT22;1691;52.486;13.374;2023-04-24T15:52:47;17.90;42.10
3356;DHT22;1691;52.486;13.374;2023-04-24T15:55:14;17.90;42.20
3356;DHT22;1691;52.486;13.374;2023-04-24T15:57:41;17.80;42.40
3356;DHT22;1691;52.486;13.374;2023-04-24T16:00:09;17.60;42.70
3356;DHT22;1691;52.486;13.374;2023-04-24T16:02:37;17.50;42.90
3356;DHT22;1691;52.486;13.374;2023-04-24T16:05:04;17.40;43.20
3356;DHT22;1691;52.486;13.374;2023-04-24T16:07:33;17.40;43.30
3356;DHT22;1691;52.486;13.374;2023-04-24T16:10:00;17.30;43.50
3356;DHT22;1691;52.486;13.374;2023-04-24T16:12:28;17.30;43.80
3356;DHT22;1691;52.486;13.374;2023-04-24T16:14:55;17.20;44.10
3356;DHT22;1691;52.486;13.374;2023-04-24T16:17:22;17.10;44.20